Eppley Airfield
KOMA : rendu visible

Aérodrome :











RETROUVEZ-NOUS SUR...

 
LOGIN :

S'inscrire | Disclaimer

   EN    FR    IT 

 









Légende :    VFR   VFR Marginal   IFR   IFR Intensif   IFR Très Intensif
Visi : 
Plafond : 
>= 8 km
>= 3000ft
5 à 8 km
1000 à 3000 ft
1500m à 5 km
500 à 1000 ft
800 à 1500m
200 à 500 ft
< 800m
< 200 ft
Symboles :   Orages  Brouillard  Fortes neiges  Fortes précipitations  Vent > 20 kt






- Altitude de l'aérodrome : 984 ft
- Code IATA : OMA


KOMA - Eppley

DERNIER METAR :
  • 300252Z 00000KT 10SM SCT250 19/09 A3017 RMK AO2 SLP214 T01890089 53010

METARs EXPIRÉS :
  • 300152Z 04003KT 10SM SCT250 21/08 A3016 RMK AO2 SLP208 T02060083
  • 300052Z 04007KT 10SM FEW100 SCT250 22/08 A3015 RMK AO2 SLP206 T02220078

TAF KOMA
Valide du 30 à 00h jusqu'au 31 à 00h UTC


292331Z 3000/3024 35008KT P6SM SCT100
FM300100 VRB04KT P6SM BKN080
FM301400 08008KT 6SM -SHRA SCT025 OVC050
FM302100 07008KT P6SM OVC040
FIR KZMP / Amérique du Nord



MET'MAP, la Météo Aéronautique d'un coup d'oeil ! - Copyright ORBIFLY Décembre 2007 - Disclaimer

ORBIFLY MET'MAP TEAM :

Programmation & Développement : Alexandra Zaïnal
Sur une idée originale de : Baudouin d'Aumeries
Assistance à la programmation : Marc-Olivier Méhu
Soutien technique & logistique : Manuel Goepfert

Contact : metmap@orbifly.com




SOURCES & CREDITS :

   NOAA       Earth
Advisory